WetterOnline ( https://www.wetteronline.de )

Wetter aktuell Roth

Aktuelles Wetter: Roth (386m)

6-stündlich | Neueste Meldungen
Ortszeit Temperatur Wetter
Mo, 26.09. 14:00 14.2° C bedeckt
Mo, 26.09. 8:00 9.1° C bewölkt
Mo, 26.09. 2:00 10.9° C bedeckt
So, 25.09. 20:00 12.3° C bedeckt
So, 25.09. 14:00 15.4° C bewölkt
So, 25.09. 8:00 11.1° C bedeckt
So, 25.09. 2:00 10.2° C bedeckt
Sa, 24.09. 20:00 12.9° C leichter Regen
Ortszeit Temperatur Wetter
Mo, 26.09. 16:30 14.8° C bewölkt
Mo, 26.09. 16:20 14.8° C bewölkt
Mo, 26.09. 16:10 14.8° C wolkig
Mo, 26.09. 16:00 15.4° C wolkenlos
Mo, 26.09. 15:50 15.4° C wolkenlos
Mo, 26.09. 15:40 16.1° C leicht bewölkt
Mo, 26.09. 15:30 15.4° C leicht bewölkt
Mo, 26.09. 15:00 15.4° C leicht bewölkt
Mo, 26.09. 14:30 15.5° C bedeckt
Mo, 26.09. 14:00 14.2° C bedeckt
Mo, 26.09. 13:30 14.0° C bewölkt
Ortszeit Relative Feuchte Sichtweite
Mo, 26.09. 14:00 59% 60 km
Mo, 26.09. 8:00 93% 16 km
Mo, 26.09. 2:00 92% 24 km
So, 25.09. 20:00 94% 24 km
So, 25.09. 14:00 65% 60 km
So, 25.09. 8:00 97% 3.3 km
So, 25.09. 2:00 97% 2.7 km
Sa, 24.09. 20:00 88% 25 km
Ortszeit Relative Feuchte Sichtweite
Mo, 26.09. 16:30 54% 55 km
Mo, 26.09. 16:20 54% -
Mo, 26.09. 16:10 54% -
Mo, 26.09. 16:00 52% 60 km
Mo, 26.09. 15:50 52% -
Mo, 26.09. 15:40 51% -
Mo, 26.09. 15:30 53% >70 km
Mo, 26.09. 15:00 50% 65 km
Mo, 26.09. 14:30 55% 60 km
Mo, 26.09. 14:00 59% 60 km
Mo, 26.09. 13:30 59% 50 km
Ortszeit Niederschlagsmenge Niederschlagsart
Mo, 26.09. 14:00 0.0 l/m2 in 6 Std. -
Mo, 26.09. 8:00 0.5 l/m2 in 12 Std. Regen
Mo, 26.09. 2:00 0.1 l/m2 in 6 Std. Regen
So, 25.09. 20:00 1 l/m2 in 12 Std. Regen
So, 25.09. 14:00 0.0 l/m2 in 6 Std. -
So, 25.09. 8:00 0.1 l/m2 in 12 Std. -
So, 25.09. 2:00 0.1 l/m2 in 6 Std. Regen
Sa, 24.09. 20:00 0.1 l/m2 in 12 Std. Regen
Ortszeit Niederschlagsmenge Niederschlagsart
Mo, 26.09. 16:30 0.0 l/m2 in 1 Std. -
Mo, 26.09. 16:20 keine Meldung -
Mo, 26.09. 16:10 keine Meldung -
Mo, 26.09. 16:00 0.0 l/m2 in 1 Std. -
Mo, 26.09. 15:50 keine Meldung -
Mo, 26.09. 15:40 keine Meldung -
Mo, 26.09. 15:30 0.0 l/m2 in 1 Std. -
Mo, 26.09. 15:00 0.0 l/m2 in 1 Std. -
Mo, 26.09. 14:30 0.0 l/m2 in 1 Std. -
Mo, 26.09. 14:00 0.0 l/m2 in 1 Std. -
Mo, 26.09. 13:30 0.0 l/m2 in 1 Std. -
Ortszeit Stärke Spitze Richtung
km/h Bft. km/h Grad Sektor
Mo, 26.09. 14:00 15 3 28 250° W
Mo, 26.09. 8:00 9 2 19 250° W
Mo, 26.09. 2:00 9 2 17 280° W
So, 25.09. 20:00 7 2 22 270° W
So, 25.09. 14:00 7 2 14 200° S
So, 25.09. 8:00 7 2 11 150° SO
So, 25.09. 2:00 4 1 11 50° NO
Sa, 24.09. 20:00 4 1 14 180° S
Ortszeit Stärke Spitze Richtung
km/h Bft. km/h Grad Sektor
Mo, 26.09. 16:30 11 2 18 220° SW
Mo, 26.09. 16:20 11 2 - 220° SW
Mo, 26.09. 16:10 11 2 - 210° SW
Mo, 26.09. 16:00 11 2 29 240° SW
Mo, 26.09. 15:50 11 2 - 240° SW
Mo, 26.09. 15:40 13 3 - 220° SW
Mo, 26.09. 15:30 13 3 28 200° S
Mo, 26.09. 15:00 13 3 22 240° SW
Mo, 26.09. 14:30 14 3 22 250° W
Mo, 26.09. 14:00 15 3 28 250° W
Mo, 26.09. 13:30 18 3 25 240° SW
Ortszeit Untergrenze Bedeckung Gattung
total tief tief mittel hoch
Mo, 26.09. 14:00 2400 m 8/8 8/8 - - -
Mo, 26.09. 8:00 2700 m 7/8 7/8 - - -
Mo, 26.09. 2:00 330 m 8/8 8/8 - - -
So, 25.09. 20:00 480 m 8/8 8/8 - - -
So, 25.09. 14:00 1020 m 7/8 7/8 - - -
So, 25.09. 8:00 150 m 8/8 8/8 - - -
So, 25.09. 2:00 2400 m 8/8 8/8 - - -
Sa, 24.09. 20:00 1380 m 7/8 7/8 - - -
Ortszeit Bedeckungsgrad in Achtel und Wolkenuntergrenze
Mo, 26.09. 16:30 1(1230m) 4(1800m) 7(2400m)
Mo, 26.09. 16:20 1(1230m) 4(1800m) 7(2400m)
Mo, 26.09. 16:10 5
Mo, 26.09. 16:00 keine Wolken
Mo, 26.09. 15:50 keine Wolken
Mo, 26.09. 15:40 2
Mo, 26.09. 15:30 1(2700m) 4(9000m)
Mo, 26.09. 15:00 2(1140m) 4(2400m)
Mo, 26.09. 14:30 8(2400m)
Mo, 26.09. 14:00 8(2400m)
Mo, 26.09. 13:30 4(900m) 5(1500m) 7(2100m)
Ortszeit Luftdruck NN (hPa) Tendenz (hPa in 3 Std.)
Mo, 26.09. 14:00 1007 - 1,6
Mo, 26.09. 8:00 1010 - 1,0
Mo, 26.09. 2:00 1011 - 0,6
So, 25.09. 20:00 1011 + 0,1
So, 25.09. 14:00 1011 - 0,8
So, 25.09. 8:00 1013 - 0,3
So, 25.09. 2:00 1014 - 0,2
Sa, 24.09. 20:00 1013 + 0,4
Ortszeit Luftdruck NN (hPa) Tendenz (hPa in 3 Std.)
Mo, 26.09. 16:30 1005 - 2,6
Mo, 26.09. 16:20 1005 keine Meldung
Mo, 26.09. 16:10 1005 keine Meldung
Mo, 26.09. 16:00 1005 - 2,4
Mo, 26.09. 15:50 1005 keine Meldung
Mo, 26.09. 15:40 1005 keine Meldung
Mo, 26.09. 15:30 1005 - 2,3
Mo, 26.09. 15:00 1006 - 2,2
Mo, 26.09. 14:30 1006 - 1,9
Mo, 26.09. 14:00 1007 - 1,6
Mo, 26.09. 13:30 1008 - 1,1
Ortszeit Schneehöhe (cm)
Mo, 26.09. 14:00 0
Mo, 26.09. 8:00 0
Mo, 26.09. 2:00 0
So, 25.09. 20:00 0
So, 25.09. 14:00 0
So, 25.09. 8:00 0
So, 25.09. 2:00 0
Sa, 24.09. 20:00 0
Ortszeit Schneehöhe (cm)
Mo, 26.09. 16:30 0
Mo, 26.09. 16:20 0
Mo, 26.09. 16:10 0
Mo, 26.09. 16:00 0
Mo, 26.09. 15:50 0
Mo, 26.09. 15:40 0
Mo, 26.09. 15:30 0
Mo, 26.09. 15:00 0
Mo, 26.09. 14:30 0
Mo, 26.09. 14:00 0
Mo, 26.09. 13:30 0
Link zu dieser Seite / Seite empfehlen

Das Wetter in ...